Reply To: Hanger plumbing

Welcome to Sky Soaring Forums General Discussion Hanger plumbing Reply To: Hanger plumbing

#10888
Don GrilloDon Grillo
Keymaster

Wind limits will have an effect today making it unsoarable. KRFD 081120Z 0812/0912 19011KT P6SM SCT150 BKN250 FM081500 21013G20KT P6SM FEW040 BKN250 FM081800 19016G27KT P6SM BKN045 PROB30 0823/0903 3SM TSRA BKN035CB FM090300 16010KT 6SM -SHRA VCTS SCT015 BKN035CB 

FM090500 18007KT 6SM BR VCSH SCT015 BKN100

— Don